Time;durP1;ratioP1;P1;durP2;ratioP2;P2;SDS_P1;SDS_P2;PMS_P1;PMS_P2;Temp;Humidity;BMP_temperature;BMP_pressure;BME280_temperature;BME280_humidity;BME280_pressure;Samples;Min_cycle;Max_cycle;Signal;HPM_P1;HPM_P2
2023/06/27 00:02:00;;;;;;;7.03;2.53;;;;;;;18.59;60.04;101241.41;5093252;28;20077;-52
2023/06/27 00:04:28;;;;;;;7.50;2.85;;;;;;;18.53;59.88;101236.97;5093153;28;20107;-50
2023/06/27 00:06:55;;;;;;;9.85;2.88;;;;;;;18.32;61.45;101224.19;5093254;28;20130;-52
2023/06/27 00:09:22;;;;;;;13.73;3.25;;;;;;;18.30;61.57;101218.19;5093248;28;20070;-49
2023/06/27 00:11:48;;;;;;;6.85;2.83;;;;;;;17.91;61.82;101231.66;5093387;28;20484;-51
2023/06/27 00:14:16;;;;;;;8.70;3.38;;;;;;;17.94;62.30;101220.34;5092970;28;20113;-51
2023/06/27 00:16:43;;;;;;;7.80;2.90;;;;;;;17.83;62.70;101215.84;5093214;28;20350;-52
2023/06/27 00:19:10;;;;;;;9.18;2.88;;;;;;;17.80;62.93;101213.59;5093191;28;20027;-52
2023/06/27 00:21:37;;;;;;;12.57;3.65;;;;;;;17.87;62.66;101214.25;5093154;28;20492;-52
2023/06/27 00:24:04;;;;;;;8.35;3.13;;;;;;;17.51;63.44;101208.22;5092238;28;20169;-52
2023/06/27 00:26:31;;;;;;;8.13;3.10;;;;;;;17.68;63.02;101211.75;5092772;28;20032;-48
2023/06/27 00:28:57;;;;;;;7.88;2.92;;;;;;;17.65;64.08;101204.13;5093030;28;20031;-53
2023/06/27 00:31:23;;;;;;;10.45;3.28;;;;;;;17.45;64.15;101211.88;5092768;28;20095;-51
2023/06/27 00:33:50;;;;;;;10.65;4.00;;;;;;;17.31;65.05;101202.41;5092089;28;20028;-52
2023/06/27 00:36:16;;;;;;;13.25;3.80;;;;;;;17.18;65.16;101206.22;5092492;28;20020;-52
2023/06/27 00:38:43;;;;;;;10.05;3.78;;;;;;;17.04;65.52;101196.75;5092845;28;20055;-52
2023/06/27 00:41:09;;;;;;;10.48;3.97;;;;;;;16.77;66.70;101201.88;5092813;28;20384;-51
2023/06/27 00:43:35;;;;;;;8.73;3.72;;;;;;;16.69;67.85;101205.72;5092251;28;20079;-53
2023/06/27 00:46:07;;;;;;;10.10;3.67;;;;;;;16.84;67.93;101192.56;5092481;28;20388;-52
2023/06/27 00:48:33;;;;;;;11.48;4.43;;;;;;;16.49;68.33;101194.47;5092516;28;20024;-53
2023/06/27 00:51:01;;;;;;;9.25;3.63;;;;;;;16.74;67.41;101191.53;5092731;28;20028;-53
2023/06/27 00:53:27;;;;;;;14.10;4.18;;;;;;;16.50;68.03;101191.56;5092571;28;20059;-54
2023/06/27 00:55:54;;;;;;;12.88;4.43;;;;;;;16.45;68.31;101183.34;5092752;28;20027;-53
2023/06/27 00:58:21;;;;;;;14.13;4.18;;;;;;;16.42;68.91;101183.78;5092276;28;20077;-53
2023/06/27 01:00:48;;;;;;;14.15;4.25;;;;;;;16.46;68.14;101184.16;5092074;28;20028;-52
2023/06/27 01:03:15;;;;;;;8.15;3.58;;;;;;;16.37;68.61;101186.38;5092691;28;20078;-54
2023/06/27 01:05:42;;;;;;;11.48;3.70;;;;;;;16.70;67.99;101174.94;5091549;28;20048;-54
2023/06/27 01:08:23;;;;;;;15.23;4.18;;;;;;;16.72;67.80;101172.03;5092126;28;20020;-55
2023/06/27 01:11:16;;;;;;;8.32;3.67;;;;;;;16.81;67.46;101168.72;5092347;28;20354;-55
2023/06/27 01:13:50;;;;;;;16.00;3.97;;;;;;;16.67;66.49;101180.84;5052411;28;20044;-56
2023/06/27 01:16:21;;;;;;;9.43;3.47;;;;;;;16.73;67.03;101165.56;5072102;28;20549;-54
2023/06/27 01:18:49;;;;;;;18.38;4.30;;;;;;;16.56;68.00;101162.75;5072233;28;20028;-50
2023/06/27 01:21:19;;;;;;;10.38;3.72;;;;;;;16.56;67.87;101160.88;5071662;28;20028;-50
2023/06/27 01:23:55;;;;;;;14.90;3.85;;;;;;;16.54;67.87;101165.69;5080584;28;20508;-55
2023/06/27 01:26:22;;;;;;;9.95;3.40;;;;;;;16.49;68.52;101162.03;5071543;28;20041;-50
2023/06/27 01:28:49;;;;;;;9.77;3.35;;;;;;;16.78;68.29;101154.88;5071794;28;20036;-52
2023/06/27 01:31:26;;;;;;;15.02;3.90;;;;;;;16.77;67.46;101151.34;5071788;28;20028;-52
2023/06/27 01:34:14;;;;;;;11.00;3.72;;;;;;;16.76;67.42;101151.56;5086347;28;20036;-52
2023/06/27 01:37:36;;;;;;;12.80;3.75;;;;;;;16.83;67.59;101157.69;5091329;28;20152;-52
2023/06/27 01:40:09;;;;;;;14.27;4.20;;;;;;;16.47;68.68;101164.16;5081969;28;20036;-52
2023/06/27 01:42:39;;;;;;;10.65;4.57;;;;;;;16.19;69.62;101154.91;5090318;28;20388;-53
2023/06/27 01:45:07;;;;;;;12.05;4.60;;;;;;;16.13;70.25;101152.34;5071645;28;20107;-50
2023/06/27 01:47:40;;;;;;;10.63;3.92;;;;;;;15.87;71.28;101150.91;5071353;28;20025;-54
2023/06/27 01:50:09;;;;;;;11.80;3.83;;;;;;;16.00;71.41;101150.69;5082249;28;20107;-53
2023/06/27 01:52:36;;;;;;;8.07;3.85;;;;;;;16.07;70.48;101154.91;5083208;28;20025;-53
2023/06/27 01:55:02;;;;;;;9.98;3.40;;;;;;;16.02;70.79;101151.28;5091491;28;20384;-52
2023/06/27 01:57:28;;;;;;;9.85;3.50;;;;;;;16.12;70.21;101139.91;5091992;28;20104;-51
2023/06/27 01:59:55;;;;;;;8.90;3.35;;;;;;;15.99;70.98;101141.78;5091279;28;20524;-53
2023/06/27 02:02:21;;;;;;;12.27;3.85;;;;;;;16.22;70.19;101151.75;5085550;28;20106;-52
2023/06/27 02:04:48;;;;;;;10.52;4.03;;;;;;;16.36;69.75;101163.13;5072036;28;20033;-52
2023/06/27 02:07:14;;;;;;;11.65;3.88;;;;;;;16.31;69.87;101157.59;5079229;28;20031;-52
2023/06/27 02:09:40;;;;;;;11.05;4.03;;;;;;;16.12;70.06;101153.41;5085571;28;20028;-52
2023/06/27 02:12:09;;;;;;;9.38;3.97;;;;;;;16.00;70.80;101139.91;5079627;28;20433;-52
2023/06/27 02:14:35;;;;;;;9.27;3.45;;;;;;;15.64;72.25;101157.91;5085770;28;20790;-52
2023/06/27 02:17:02;;;;;;;9.45;3.67;;;;;;;15.53;72.88;101156.81;5085969;28;20024;-54
2023/06/27 02:19:28;;;;;;;11.82;4.32;;;;;;;15.54;72.99;101150.34;5096024;28;20020;-49
2023/06/27 02:21:54;;;;;;;8.93;4.13;;;;;;;15.62;72.89;101156.50;5095805;28;20101;-53
2023/06/27 02:24:21;;;;;;;13.30;4.20;;;;;;;15.55;73.15;101151.19;5095847;28;20035;-51
2023/06/27 02:26:47;;;;;;;15.25;3.97;;;;;;;15.43;73.45;101145.75;5094335;28;20028;-49
2023/06/27 02:29:13;;;;;;;12.38;4.32;;;;;;;15.37;73.69;101135.88;5095683;28;20103;-52
2023/06/27 02:31:39;;;;;;;10.68;4.40;;;;;;;15.26;73.99;101147.47;5095781;28;20107;-52
2023/06/27 02:34:09;;;;;;;10.07;3.92;;;;;;;15.02;75.20;101141.97;5095062;28;20024;-52
2023/06/27 02:36:35;;;;;;;8.50;3.95;;;;;;;15.24;74.63;101149.56;5094516;28;20055;-52
2023/06/27 02:39:02;;;;;;;12.48;4.03;;;;;;;15.12;75.17;101154.09;5094450;28;20121;-49
2023/06/27 02:41:28;;;;;;;14.80;4.63;;;;;;;14.98;75.89;101151.56;5094296;28;20357;-53
2023/06/27 02:43:55;;;;;;;10.13;4.32;;;;;;;14.86;76.37;101150.69;5091460;28;20028;-53
2023/06/27 02:46:21;;;;;;;14.70;5.13;;;;;;;14.88;76.50;101145.91;5085791;28;20039;-52
2023/06/27 02:48:47;;;;;;;12.20;5.03;;;;;;;14.91;76.06;101152.72;5091447;28;20156;-49
2023/06/27 02:51:14;;;;;;;15.57;4.60;;;;;;;14.86;76.58;101147.19;5072886;28;20032;-52
2023/06/27 02:53:40;;;;;;;12.82;4.82;;;;;;;14.73;77.25;101153.56;5074555;28;20476;-52
2023/06/27 02:56:07;;;;;;;11.10;4.45;;;;;;;14.60;78.13;101156.41;5079615;28;20123;-52
2023/06/27 02:58:34;;;;;;;14.02;4.60;;;;;;;14.69;78.24;101163.13;5094807;28;20035;-53
2023/06/27 03:01:03;;;;;;;14.35;4.85;;;;;;;14.61;78.76;101161.59;5094583;28;20055;-53
2023/06/27 03:03:29;;;;;;;11.98;4.05;;;;;;;14.63;78.73;101155.97;5094545;28;20389;-52
2023/06/27 03:05:56;;;;;;;13.63;4.63;;;;;;;14.23;79.99;101151.78;5094133;28;20162;-52
2023/06/27 03:08:22;;;;;;;13.00;4.43;;;;;;;14.20;80.24;101149.53;5076858;28;20032;-52
2023/06/27 03:10:48;;;;;;;14.43;4.07;;;;;;;14.35;79.84;101138.41;5074396;28;20067;-51
2023/06/27 03:13:14;;;;;;;15.05;4.82;;;;;;;14.46;78.93;101134.16;5074431;28;20420;-52
2023/06/27 03:15:41;;;;;;;16.73;4.97;;;;;;;14.47;78.68;101135.81;5073639;28;20060;-52
2023/06/27 03:18:07;;;;;;;13.82;4.88;;;;;;;14.48;78.50;101145.53;5074236;28;20477;-51
2023/06/27 03:20:33;;;;;;;10.77;4.40;;;;;;;14.31;79.38;101144.47;5074088;28;20039;-53
2023/06/27 03:22:59;;;;;;;9.13;4.45;;;;;;;14.36;79.44;101140.06;5073763;28;20082;-52
2023/06/27 03:25:26;;;;;;;11.18;4.50;;;;;;;14.27;80.17;101136.03;5073637;28;20474;-53
2023/06/27 03:27:52;;;;;;;17.08;5.20;;;;;;;14.06;80.94;101137.25;5073126;28;20059;-53
2023/06/27 03:30:18;;;;;;;15.15;4.65;;;;;;;14.16;80.62;101145.66;5073626;28;20483;-53
2023/06/27 03:32:44;;;;;;;14.90;4.93;;;;;;;13.96;81.21;101140.44;5080506;28;20043;-53
2023/06/27 03:35:10;;;;;;;19.42;5.43;;;;;;;13.89;81.49;101134.31;5093771;28;20024;-52
2023/06/27 03:37:37;;;;;;;16.15;5.30;;;;;;;13.88;81.88;101138.06;5094022;28;20024;-49
2023/06/27 03:40:04;;;;;;;14.93;5.10;;;;;;;13.77;82.66;101146.84;5092888;28;20028;-52
2023/06/27 03:42:31;;;;;;;10.48;4.63;;;;;;;13.84;82.59;101133.31;5079189;28;20024;-52
2023/06/27 03:44:57;;;;;;;16.70;5.15;;;;;;;13.61;83.51;101144.69;5089779;28;20403;-50
2023/06/27 03:47:24;;;;;;;13.10;5.15;;;;;;;13.64;83.36;101137.00;5089094;28;20012;-53
2023/06/27 03:49:50;;;;;;;15.38;5.55;;;;;;;13.69;nan;101149.78;5084568;28;20032;-52
2023/06/27 03:52:16;;;;;;;12.45;4.90;;;;;;;13.57;83.28;101143.47;5093667;28;20111;-49
2023/06/27 03:54:42;;;;;;;16.48;5.53;;;;;;;13.54;83.17;101138.50;5092274;28;20043;-52
2023/06/27 03:57:09;;;;;;;10.10;4.53;;;;;;;13.58;83.10;101147.81;5092843;28;20385;-52
2023/06/27 03:59:35;;;;;;;18.52;5.32;;;;;;;13.63;83.02;101153.34;5092350;28;20119;-51
2023/06/27 04:02:01;;;;;;;12.95;4.85;;;;;;;13.58;83.32;101145.94;5092550;28;20757;-52
2023/06/27 04:04:27;;;;;;;14.48;4.57;;;;;;;13.51;83.27;101150.53;5092838;28;20028;-52
2023/06/27 04:06:54;;;;;;;10.70;4.50;;;;;;;13.48;82.81;101150.97;5092536;28;20024;-53
2023/06/27 04:09:20;;;;;;;12.77;4.20;;;;;;;13.53;82.62;101144.94;5092868;28;20388;-53
2023/06/27 04:11:46;;;;;;;13.13;4.97;;;;;;;13.49;83.31;101149.91;5092943;28;20052;-52
2023/06/27 04:14:17;;;;;;;13.93;4.93;;;;;;;13.52;83.28;101154.06;5093118;28;20532;-53
2023/06/27 04:16:44;;;;;;;10.27;3.88;;;;;;;13.45;83.59;101160.31;5092855;28;20028;-52
2023/06/27 04:19:10;;;;;;;15.02;5.70;;;;;;;13.44;83.39;101161.34;5092219;28;20402;-55
2023/06/27 04:21:37;;;;;;;8.40;4.53;;;;;;;13.43;83.62;101158.84;5092377;28;20032;-53
2023/06/27 04:24:03;;;;;;;15.07;4.60;;;;;;;13.38;83.87;101172.97;5092649;28;20036;-52
2023/06/27 04:26:30;;;;;;;14.23;4.72;;;;;;;13.39;83.32;101166.56;5092654;28;20492;-53
2023/06/27 04:28:57;;;;;;;13.75;5.07;;;;;;;13.47;83.14;101166.28;5091830;28;20070;-52
2023/06/27 04:31:25;;;;;;;11.43;4.18;;;;;;;13.44;83.10;101163.22;5092471;28;20032;-54
2023/06/27 04:33:55;;;;;;;8.90;4.05;;;;;;;13.44;83.36;101160.53;5092583;28;20024;-53
2023/06/27 04:36:24;;;;;;;11.90;4.53;;;;;;;13.55;83.22;101162.53;5085854;28;20415;-53
2023/06/27 04:38:51;;;;;;;16.50;5.78;;;;;;;13.46;83.73;101161.13;5079093;28;20031;-53
2023/06/27 04:41:17;;;;;;;20.48;4.63;;;;;;;13.48;83.69;101167.94;5091816;28;20115;-54
2023/06/27 04:43:43;;;;;;;13.82;4.93;;;;;;;13.55;83.34;101167.91;5092386;28;20447;-51
2023/06/27 04:46:09;;;;;;;14.15;4.90;;;;;;;13.51;83.41;101176.63;5092252;28;20431;-54
2023/06/27 04:48:36;;;;;;;19.88;5.07;;;;;;;13.47;83.54;101182.41;5092769;28;20016;-53
2023/06/27 04:51:03;;;;;;;14.38;4.68;;;;;;;13.44;84.04;101166.72;5092534;28;20488;-51
2023/06/27 04:53:30;;;;;;;14.15;4.25;;;;;;;13.45;83.69;101173.75;5092355;28;20502;-53
2023/06/27 04:55:56;;;;;;;10.35;4.68;;;;;;;13.54;83.68;101170.78;5092405;28;20032;-52
2023/06/27 04:58:23;;;;;;;14.45;4.35;;;;;;;13.52;83.91;101175.56;5092923;28;20024;-54
2023/06/27 05:00:51;;;;;;;14.57;4.22;;;;;;;13.47;84.16;101179.72;5091295;28;20028;-50
2023/06/27 05:03:18;;;;;;;14.57;4.43;;;;;;;13.43;84.49;101181.19;5092080;28;20032;-52
2023/06/27 05:05:45;;;;;;;13.35;4.82;;;;;;;13.42;84.63;101171.47;5092190;28;20260;-52
2023/06/27 05:08:12;;;;;;;10.52;4.18;;;;;;;13.51;84.20;101172.06;5092343;28;20024;-51
2023/06/27 05:10:38;;;;;;;15.18;4.20;;;;;;;13.53;83.57;101179.91;5092403;28;20105;-53
2023/06/27 05:13:05;;;;;;;11.63;4.40;;;;;;;13.47;84.20;101171.66;5092113;28;20031;-52
2023/06/27 05:15:31;;;;;;;13.40;4.30;;;;;;;13.53;83.99;101179.91;5091904;28;20020;-53
2023/06/27 05:18:06;;;;;;;14.80;4.63;;;;;;;13.50;83.86;101180.34;5092116;28;20028;-53
2023/06/27 05:20:32;;;;;;;11.10;3.85;;;;;;;13.32;83.85;101173.81;5092341;28;20028;-54
2023/06/27 05:22:58;;;;;;;10.32;4.53;;;;;;;13.29;83.88;101176.94;5091997;28;20052;-52
2023/06/27 05:25:25;;;;;;;14.38;4.28;;;;;;;13.29;84.01;101163.50;5091774;28;20027;-52
2023/06/27 05:27:51;;;;;;;15.48;4.90;;;;;;;13.26;84.37;101174.69;5092088;28;20048;-50
2023/06/27 05:30:17;;;;;;;11.48;4.50;;;;;;;13.34;84.30;101176.31;5092333;28;20034;-53
2023/06/27 05:32:43;;;;;;;11.93;4.07;;;;;;;13.34;83.61;101174.44;5092035;28;20372;-53
2023/06/27 05:35:10;;;;;;;12.48;4.50;;;;;;;13.37;84.07;101176.69;5091679;28;20104;-54
2023/06/27 05:37:36;;;;;;;16.20;4.18;;;;;;;13.33;84.49;101174.66;5074721;28;20028;-53
2023/06/27 05:40:02;;;;;;;14.52;5.03;;;;;;;13.33;84.39;101183.56;5092113;28;20425;-54
2023/06/27 05:42:29;;;;;;;13.55;4.50;;;;;;;13.32;84.53;101175.69;5091633;28;20027;-53
2023/06/27 05:44:55;;;;;;;14.23;4.45;;;;;;;13.18;85.73;101183.81;5091283;28;20086;-54
2023/06/27 05:47:21;;;;;;;13.65;4.45;;;;;;;13.18;85.98;101174.91;5091267;28;20111;-54
2023/06/27 05:49:48;;;;;;;10.35;4.20;;;;;;;13.10;86.24;101169.78;5091446;28;20072;-53
2023/06/27 05:52:15;;;;;;;12.25;4.53;;;;;;;13.10;86.24;101167.94;5095032;28;20031;-52
2023/06/27 05:54:44;;;;;;;11.95;4.72;;;;;;;13.23;85.20;101163.56;5095393;28;20127;-53
2023/06/27 05:57:10;;;;;;;18.52;4.60;;;;;;;13.05;85.76;101161.56;5095930;28;20028;-53
2023/06/27 05:59:37;;;;;;;12.95;4.25;;;;;;;13.13;85.99;101166.66;5095894;28;20049;-53
2023/06/27 06:02:04;;;;;;;9.52;4.00;;;;;;;13.04;86.44;101165.25;5075446;28;20036;-53
2023/06/27 06:04:30;;;;;;;16.17;4.22;;;;;;;13.04;86.07;101167.94;5075537;28;20028;-53
2023/06/27 06:06:58;;;;;;;12.93;4.15;;;;;;;12.94;86.37;101166.56;5075321;28;20085;-55
2023/06/27 06:09:25;;;;;;;11.73;4.05;;;;;;;12.94;86.28;101161.19;5075277;28;20469;-54
2023/06/27 06:11:52;;;;;;;12.15;3.90;;;;;;;13.01;86.52;101157.63;5075900;28;20032;-53
2023/06/27 06:14:18;;;;;;;12.02;4.30;;;;;;;12.98;86.85;101158.06;5095529;28;20028;-54
2023/06/27 06:16:45;;;;;;;8.32;3.80;;;;;;;12.99;86.58;101160.53;5095550;28;20032;-54
2023/06/27 06:19:11;;;;;;;10.82;3.90;;;;;;;13.04;86.43;101166.09;5095839;28;20032;-52
2023/06/27 06:21:38;;;;;;;10.85;4.30;;;;;;;13.04;85.91;101166.09;5095260;28;20061;-54
2023/06/27 06:24:04;;;;;;;11.93;4.20;;;;;;;13.07;86.22;101160.28;5095359;28;20400;-55
2023/06/27 06:26:30;;;;;;;15.43;4.10;;;;;;;13.11;86.10;101161.50;5095137;28;20035;-53
2023/06/27 06:28:56;;;;;;;15.75;4.72;;;;;;;12.98;86.67;101163.44;5095388;28;20020;-54
2023/06/27 06:31:24;;;;;;;12.65;4.38;;;;;;;13.04;86.97;101170.63;5095269;28;20024;-52
2023/06/27 06:33:51;;;;;;;12.05;3.95;;;;;;;13.01;86.97;101165.69;5095190;28;20111;-54
2023/06/27 06:36:18;;;;;;;11.00;4.20;;;;;;;13.02;86.97;101167.34;5088627;28;20064;-53
2023/06/27 06:38:45;;;;;;;10.57;3.78;;;;;;;13.10;85.56;101172.47;5074726;28;20039;-54
2023/06/27 06:41:11;;;;;;;13.38;3.85;;;;;;;12.99;86.52;101167.75;5074866;28;20473;-53
2023/06/27 06:43:37;;;;;;;16.80;5.03;;;;;;;12.99;86.54;101167.75;5074565;28;20425;-54
2023/06/27 06:46:04;;;;;;;8.00;3.58;;;;;;;13.00;86.28;101169.44;5074551;28;20033;-54
2023/06/27 06:48:31;;;;;;;9.73;3.97;;;;;;;12.94;86.98;101168.44;5076094;28;20024;-54
2023/06/27 06:50:58;;;;;;;11.90;3.83;;;;;;;12.98;87.30;101174.19;5094838;28;20056;-53
2023/06/27 06:53:24;;;;;;;13.00;4.00;;;;;;;12.92;87.38;101173.16;5094784;28;20028;-54
2023/06/27 06:55:50;;;;;;;11.00;4.00;;;;;;;12.91;87.02;101172.34;5094233;28;20035;-53
2023/06/27 06:58:16;;;;;;;10.82;3.97;;;;;;;12.98;87.11;101171.50;5093911;28;20076;-54
2023/06/27 07:00:43;;;;;;;11.88;4.07;;;;;;;12.95;87.08;101160.16;5094164;28;20020;-53
2023/06/27 07:03:09;;;;;;;13.93;4.55;;;;;;;12.92;87.66;101178.53;5093002;28;20468;-54
2023/06/27 07:05:36;;;;;;;10.70;3.47;;;;;;;12.88;88.03;101159.34;5094301;28;20028;-54
2023/06/27 07:08:06;;;;;;;15.73;4.70;;;;;;;12.78;88.16;101158.97;5094548;28;20103;-54
2023/06/27 07:10:32;;;;;;;11.73;3.78;;;;;;;12.84;87.76;101168.88;5094565;28;20024;-54
2023/06/27 07:13:01;;;;;;;8.68;4.10;;;;;;;12.68;88.57;101169.34;5094546;28;20028;-54
2023/06/27 07:15:31;;;;;;;12.20;3.65;;;;;;;12.76;88.32;101160.22;5093981;28;20498;-54
2023/06/27 07:17:58;;;;;;;10.35;3.58;;;;;;;12.73;88.71;101166.03;5094433;28;20107;-54
2023/06/27 07:20:25;;;;;;;11.25;4.00;;;;;;;12.79;88.73;101162.50;5094168;28;20030;-54
2023/06/27 07:22:52;;;;;;;14.32;3.92;;;;;;;12.71;88.89;101155.47;5094162;28;20044;-55
2023/06/27 07:25:19;;;;;;;15.70;3.47;;;;;;;12.75;88.40;101162.06;5093956;28;20043;-53
2023/06/27 07:27:45;;;;;;;9.45;3.20;;;;;;;12.69;88.97;101152.19;5094233;28;20384;-53
2023/06/27 07:30:13;;;;;;;13.25;4.53;;;;;;;12.73;88.91;101141.84;5094203;28;20454;-53
2023/06/27 07:32:39;;;;;;;17.08;4.38;;;;;;;12.80;89.04;101150.69;5094121;28;20031;-54
2023/06/27 07:35:06;;;;;;;11.18;3.90;;;;;;;12.72;89.02;101146.41;5093853;28;20115;-54
2023/06/27 07:37:32;;;;;;;11.98;3.72;;;;;;;12.69;89.26;101141.44;5077486;28;20060;-54
2023/06/27 07:39:58;;;;;;;16.52;4.40;;;;;;;12.61;89.40;101144.38;5073755;28;20044;-53
2023/06/27 07:42:25;;;;;;;11.85;4.60;;;;;;;12.59;89.79;101135.69;5073800;28;20032;-53
2023/06/27 07:44:52;;;;;;;13.00;3.67;;;;;;;12.60;89.75;101145.38;5073282;28;20124;-54
2023/06/27 07:47:18;;;;;;;14.23;4.28;;;;;;;12.58;89.87;101142.09;5073648;28;20493;-55
2023/06/27 07:49:44;;;;;;;13.57;4.38;;;;;;;12.57;90.11;101151.19;5073533;28;20385;-54
2023/06/27 07:52:11;;;;;;;12.27;4.10;;;;;;;12.61;90.03;101152.44;5073501;28;20024;-55
2023/06/27 07:54:37;;;;;;;15.00;4.15;;;;;;;12.66;89.94;101144.56;5073078;28;20124;-54
2023/06/27 07:57:04;;;;;;;16.70;4.93;;;;;;;12.43;91.29;101150.41;5083799;28;20035;-55
2023/06/27 07:59:30;;;;;;;12.00;4.35;;;;;;;12.53;91.16;101160.72;5093672;28;20039;-53
2023/06/27 08:01:57;;;;;;;11.85;3.45;;;;;;;12.55;91.44;101155.97;5093594;28;20099;-54
2023/06/27 08:04:23;;;;;;;18.38;4.78;;;;;;;12.43;91.65;101161.97;5093426;28;20051;-55
2023/06/27 08:06:49;;;;;;;10.25;3.28;;;;;;;12.55;91.46;101161.34;5093232;28;20042;-55
2023/06/27 08:09:15;;;;;;;13.50;3.95;;;;;;;12.48;91.14;101158.66;5092563;28;20381;-54
2023/06/27 08:11:42;;;;;;;8.98;3.97;;;;;;;12.58;91.26;101160.91;5093057;28;20062;-54
2023/06/27 08:14:08;;;;;;;6.82;3.17;;;;;;;12.56;91.21;101157.63;5092508;28;20031;-54
2023/06/27 08:16:34;;;;;;;12.93;3.53;;;;;;;12.41;91.99;101155.97;5092606;28;20081;-54
2023/06/27 08:19:01;;;;;;;16.92;4.45;;;;;;;12.46;92.30;101158.03;5092648;28;20481;-54
2023/06/27 08:21:27;;;;;;;11.32;4.43;;;;;;;12.32;92.74;101145.69;5092690;28;20055;-53
2023/06/27 08:23:53;;;;;;;10.75;3.70;;;;;;;12.39;93.26;101151.88;5092641;28;20063;-54
2023/06/27 08:26:19;;;;;;;9.30;3.17;;;;;;;12.34;92.80;101138.25;5092793;28;20020;-55
2023/06/27 08:28:46;;;;;;;9.38;3.50;;;;;;;12.38;93.41;101144.84;5093031;28;20024;-54
2023/06/27 08:31:13;;;;;;;11.82;3.22;;;;;;;12.38;93.22;101156.44;5092814;28;20028;-54
2023/06/27 08:33:40;;;;;;;8.43;3.15;;;;;;;12.34;93.79;101155.19;5093033;28;20032;-55
2023/06/27 08:36:07;;;;;;;6.85;3.17;;;;;;;12.36;94.07;101163.84;5087705;28;20036;-54
2023/06/27 08:38:33;;;;;;;11.18;3.38;;;;;;;12.36;94.29;101161.16;5072581;28;20047;-54
2023/06/27 08:41:01;;;;;;;9.50;3.03;;;;;;;12.33;93.54;101158.09;5080211;28;20021;-55
2023/06/27 08:43:28;;;;;;;6.93;3.00;;;;;;;12.33;93.61;101156.22;5092676;28;20381;-55
2023/06/27 08:45:55;;;;;;;7.70;3.13;;;;;;;12.40;93.80;101153.53;5092381;28;20031;-53
2023/06/27 08:48:22;;;;;;;8.23;3.15;;;;;;;12.40;93.87;101156.19;5092653;28;20036;-54
2023/06/27 08:50:57;;;;;;;9.00;2.88;;;;;;;12.26;93.46;101143.84;5092482;28;20107;-54
2023/06/27 08:53:27;;;;;;;9.60;2.80;;;;;;;12.29;93.73;101151.47;5092586;28;20032;-54
2023/06/27 08:56:11;;;;;;;9.60;3.22;;;;;;;12.24;95.20;101148.59;5092412;28;20511;-55
2023/06/27 08:58:50;;;;;;;11.10;3.05;;;;;;;12.32;94.29;101146.50;5092827;28;20400;-54
2023/06/27 09:01:16;;;;;;;9.95;3.22;;;;;;;12.26;93.92;101136.59;5092353;28;20028;-54
2023/06/27 09:03:42;;;;;;;9.57;2.75;;;;;;;12.25;93.79;101139.50;5092372;28;20028;-54
2023/06/27 09:06:09;;;;;;;6.35;2.25;;;;;;;12.29;93.79;101143.44;5092483;28;20472;-55
2023/06/27 09:08:36;;;;;;;8.23;2.90;;;;;;;12.30;93.80;101145.06;5092298;28;20026;-55
2023/06/27 09:11:08;;;;;;;7.43;3.00;;;;;;;12.29;94.48;101133.50;5092135;28;20028;-55
2023/06/27 09:13:36;;;;;;;8.90;2.55;;;;;;;12.22;95.33;101135.41;5092352;28;20515;-55
2023/06/27 09:16:06;;;;;;;6.35;2.67;;;;;;;12.24;95.26;101129.81;5091888;28;20114;-54
2023/06/27 09:18:36;;;;;;;8.48;3.05;;;;;;;12.13;94.81;101142.84;5092331;28;20380;-54
2023/06/27 09:21:02;;;;;;;8.02;2.63;;;;;;;12.11;94.97;101133.34;5091841;28;20020;-55
2023/06/27 09:23:30;;;;;;;6.15;2.72;;;;;;;12.12;95.34;101141.19;5091716;28;20639;-55
2023/06/27 09:26:10;;;;;;;10.43;2.95;;;;;;;11.97;96.04;101145.94;5090972;28;20032;-55
2023/06/27 09:28:51;;;;;;;8.00;2.78;;;;;;;12.12;95.69;101146.56;5092070;28;20039;-54
2023/06/27 09:31:18;;;;;;;7.38;2.60;;;;;;;12.17;95.56;101134.38;5091394;28;20053;-55
2023/06/27 09:33:45;;;;;;;6.95;2.78;;;;;;;12.14;95.67;101128.38;5091652;28;20028;-55
2023/06/27 09:36:12;;;;;;;9.73;3.05;;;;;;;12.07;96.09;101134.78;5086073;28;20021;-55
2023/06/27 09:38:38;;;;;;;6.75;2.33;;;;;;;12.13;95.17;101129.41;5077854;28;20016;-54
2023/06/27 09:41:05;;;;;;;6.68;2.45;;;;;;;12.06;95.60;101125.91;5091910;28;20058;-54
2023/06/27 09:43:36;;;;;;;9.55;3.05;;;;;;;12.07;95.31;101122.19;5092189;28;20032;-54
2023/06/27 09:46:05;;;;;;;8.20;2.63;;;;;;;12.05;95.03;101112.72;5091417;28;20025;-55
2023/06/27 09:48:32;;;;;;;19.17;3.65;;;;;;;12.09;95.30;101116.63;5091859;28;20035;-54
2023/06/27 09:51:00;;;;;;;6.70;2.63;;;;;;;12.01;94.96;101116.84;5091675;28;20026;-55
2023/06/27 09:53:29;;;;;;;4.43;2.10;;;;;;;11.93;95.88;101117.88;5092042;28;20533;-54
2023/06/27 09:55:59;;;;;;;7.72;2.03;;;;;;;11.96;96.58;101117.47;5091418;28;20073;-54
2023/06/27 09:58:32;;;;;;;9.93;2.60;;;;;;;12.02;95.87;101113.94;5092004;28;20032;-54
2023/06/27 10:01:06;;;;;;;5.80;2.28;;;;;;;11.92;96.61;101110.03;5091533;28;20028;-55
2023/06/27 10:03:34;;;;;;;9.20;2.55;;;;;;;12.01;96.02;101106.13;5091703;28;20028;-56
2023/06/27 10:06:02;;;;;;;15.05;3.28;;;;;;;12.01;96.65;101111.47;5091330;28;20494;-55
2023/06/27 10:08:29;;;;;;;5.38;2.13;;;;;;;12.03;96.31;101110.22;5091695;28;20025;-54
2023/06/27 10:10:58;;;;;;;7.30;2.70;;;;;;;11.90;96.50;101110.25;5091921;28;20031;-55
2023/06/27 10:13:25;;;;;;;6.45;2.40;;;;;;;11.88;96.28;101101.56;5091723;28;20027;-56
2023/06/27 10:15:51;;;;;;;9.07;2.80;;;;;;;11.87;96.19;101114.16;5091893;28;20047;-55
2023/06/27 10:18:17;;;;;;;6.13;2.92;;;;;;;11.80;96.91;101107.97;5091610;28;20024;-56
2023/06/27 10:20:44;;;;;;;7.28;2.55;;;;;;;11.76;97.02;101113.94;5091557;28;20046;-56
2023/06/27 10:23:12;;;;;;;8.75;2.88;;;;;;;11.89;96.28;101109.44;5091000;28;20044;-55
2023/06/27 10:25:39;;;;;;;7.20;2.63;;;;;;;11.86;96.64;101114.38;5091269;28;20036;-54
2023/06/27 10:28:08;;;;;;;5.57;2.20;;;;;;;11.94;96.40;101116.88;5091368;28;20053;-55
2023/06/27 10:30:47;;;;;;;7.50;2.78;;;;;;;11.96;96.27;101117.47;5091541;28;20500;-55
2023/06/27 10:33:31;;;;;;;8.18;2.55;;;;;;;12.03;95.69;101112.91;5091194;28;20053;-55
2023/06/27 10:36:09;;;;;;;11.50;3.17;;;;;;;11.89;95.64;101112.13;5087361;28;20067;-56
2023/06/27 10:38:40;;;;;;;7.95;3.00;;;;;;;11.94;95.40;101100.78;5088915;28;20028;-56
2023/06/27 10:41:10;;;;;;;10.20;3.38;;;;;;;11.98;95.92;101101.97;5094336;28;20488;-55
2023/06/27 10:43:49;;;;;;;9.80;3.28;;;;;;;11.91;97.09;101100.34;5095147;28;20055;-55
2023/06/27 10:46:23;;;;;;;7.90;2.80;;;;;;;11.91;96.44;101106.53;5094588;28;20031;-54
2023/06/27 10:49:10;;;;;;;7.10;2.92;;;;;;;12.02;96.08;101102.41;5094535;28;20052;-56
2023/06/27 10:51:41;;;;;;;8.77;2.85;;;;;;;11.95;95.93;101106.97;5094805;28;20028;-55
2023/06/27 10:54:11;;;;;;;11.45;2.78;;;;;;;12.00;96.26;101099.13;5094803;28;20031;-56
2023/06/27 10:56:40;;;;;;;12.20;3.53;;;;;;;11.96;96.41;101090.66;5094669;28;20044;-56
2023/06/27 10:59:20;;;;;;;10.60;3.08;;;;;;;11.95;96.40;101096.22;5095125;28;20032;-55
2023/06/27 11:02:04;;;;;;;9.07;2.42;;;;;;;11.98;95.83;101090.44;5094725;28;20107;-55
2023/06/27 11:04:41;;;;;;;11.52;2.85;;;;;;;11.98;95.64;101091.25;5094576;28;20036;-56
2023/06/27 11:07:12;;;;;;;8.50;3.28;;;;;;;12.02;95.41;101091.66;5074448;28;20028;-56
2023/06/27 11:09:51;;;;;;;8.23;2.08;;;;;;;12.02;96.21;101088.97;5074358;28;20116;-56
2023/06/27 11:12:19;;;;;;;8.30;2.70;;;;;;;11.99;95.96;101086.69;5074226;28;20036;-56
2023/06/27 11:14:45;;;;;;;8.57;2.65;;;;;;;12.15;94.52;101097.00;5074007;28;20028;-56
2023/06/27 11:17:12;;;;;;;7.05;2.35;;;;;;;12.03;94.79;101093.31;5073836;28;20062;-56
2023/06/27 11:19:40;;;;;;;6.10;2.42;;;;;;;11.99;94.95;101089.38;5074163;28;20449;-55
2023/06/27 11:22:07;;;;;;;10.80;2.65;;;;;;;12.06;94.88;101087.53;5073912;28;20052;-56
2023/06/27 11:24:33;;;;;;;9.23;2.55;;;;;;;12.10;94.53;101099.47;5073727;28;20037;-55